createdAt,value
2019-02-02T00:02:40.443Z,4.80
2019-02-02T00:05:11.544Z,4.50
2019-02-02T00:07:42.481Z,4.67
2019-02-02T00:10:13.176Z,4.23
2019-02-02T00:12:44.141Z,4.27
2019-02-02T00:15:14.758Z,4.20
2019-02-02T00:17:45.547Z,4.43
2019-02-02T00:20:16.272Z,4.17
2019-02-02T00:22:47.259Z,3.07
2019-02-02T00:25:18.150Z,3.13
2019-02-02T00:27:49.482Z,3.03
2019-02-02T00:30:20.253Z,3.23
2019-02-02T00:32:51.307Z,3.30
2019-02-02T00:35:22.118Z,2.87
2019-02-02T00:37:53.150Z,2.80
2019-02-02T00:40:23.893Z,2.90
2019-02-02T00:42:55.224Z,2.80
2019-02-02T00:45:26.553Z,2.53
2019-02-02T00:47:57.445Z,2.50
2019-02-02T00:50:28.433Z,2.30
2019-02-02T00:53:01.227Z,2.67
2019-02-02T00:55:31.850Z,3.40
2019-02-02T00:58:02.584Z,5.57
2019-02-02T01:00:33.193Z,5.07
2019-02-02T01:03:04.773Z,6.47
2019-02-02T01:05:35.807Z,8.13
2019-02-02T01:08:06.863Z,7.83
2019-02-02T01:10:38.143Z,8.33
2019-02-02T01:13:09.015Z,9.47
2019-02-02T01:15:40.145Z,9.70
2019-02-02T01:18:11.179Z,8.27
2019-02-02T01:20:41.894Z,7.30
2019-02-02T01:23:12.788Z,6.43
2019-02-02T01:25:43.445Z,7.27
2019-02-02T01:28:14.527Z,7.23
2019-02-02T01:30:45.537Z,6.20
2019-02-02T01:33:17.020Z,4.77
2019-02-02T01:35:47.652Z,4.30
2019-02-02T01:38:18.500Z,3.47
2019-02-02T01:40:49.091Z,4.17
2019-02-02T01:43:19.823Z,4.60
2019-02-02T01:45:50.613Z,4.13
2019-02-02T01:48:21.493Z,3.83
2019-02-02T01:50:52.183Z,3.57
2019-02-02T01:53:23.094Z,2.97
2019-02-02T01:55:54.421Z,3.60
2019-02-02T01:58:24.941Z,3.00
2019-02-02T02:00:55.805Z,3.30
2019-02-02T02:03:26.455Z,3.23
2019-02-02T02:05:57.014Z,3.57
2019-02-02T02:08:28.251Z,3.30
2019-02-02T02:10:59.111Z,2.70
2019-02-02T02:13:30.028Z,2.80
2019-02-02T02:16:00.581Z,2.67
2019-02-02T02:18:31.185Z,2.70
2019-02-02T02:21:01.807Z,3.00
2019-02-02T02:23:32.470Z,2.20
2019-02-02T02:26:03.203Z,2.50
2019-02-02T02:28:33.833Z,2.40
2019-02-02T02:31:04.981Z,2.30
2019-02-02T02:33:35.820Z,2.20
2019-02-02T02:36:06.467Z,2.50
2019-02-02T02:38:37.641Z,2.30
2019-02-02T02:41:08.218Z,2.07
2019-02-02T02:43:38.952Z,2.23
2019-02-02T02:46:09.901Z,1.83
2019-02-02T02:48:40.833Z,2.40
2019-02-02T02:51:11.692Z,1.83
2019-02-02T02:53:42.387Z,1.83
2019-02-02T02:56:13.553Z,1.87
2019-02-02T02:58:44.178Z,1.80
2019-02-02T03:01:14.693Z,1.80
2019-02-02T03:03:45.193Z,2.07
2019-02-02T03:06:16.933Z,1.80
2019-02-02T03:08:47.642Z,2.00
2019-02-02T03:11:18.468Z,1.97
2019-02-02T03:13:49.058Z,1.90
2019-02-02T03:16:20.835Z,1.87
2019-02-02T03:18:51.479Z,1.90
2019-02-02T03:21:22.584Z,1.90
2019-02-02T03:23:53.477Z,1.87
2019-02-02T03:26:24.217Z,1.87
2019-02-02T03:28:55.014Z,2.10
2019-02-02T03:31:25.809Z,1.57
2019-02-02T03:33:56.879Z,1.90
2019-02-02T03:36:27.448Z,1.67
2019-02-02T03:38:58.390Z,1.77
2019-02-02T03:41:29.595Z,1.40
2019-02-02T03:44:00.397Z,1.60
2019-02-02T03:46:30.949Z,1.60
2019-02-02T03:49:01.972Z,1.90
2019-02-02T03:51:32.667Z,1.90
2019-02-02T03:54:09.115Z,3.30
2019-02-02T03:56:35.783Z,3.07
2019-02-02T03:59:07.275Z,1.90
2019-02-02T04:01:37.945Z,2.30
2019-02-02T04:04:08.351Z,2.90
2019-02-02T04:06:38.892Z,1.80
2019-02-02T04:09:10.227Z,2.47
2019-02-02T04:11:43.390Z,2.40
2019-02-02T04:14:13.292Z,3.73
2019-02-02T04:16:44.286Z,5.23
2019-02-02T04:19:14.737Z,6.43
2019-02-02T04:21:45.672Z,5.73
2019-02-02T04:24:16.332Z,6.50
2019-02-02T04:26:47.103Z,5.30
2019-02-02T04:29:18.186Z,5.87
2019-02-02T04:31:49.407Z,4.03
2019-02-02T04:34:20.317Z,3.33
2019-02-02T04:36:51.239Z,3.17
2019-02-02T04:39:21.880Z,3.60
2019-02-02T04:41:52.837Z,2.87
2019-02-02T04:44:23.329Z,2.90
2019-02-02T04:46:54.283Z,3.10
2019-02-02T04:49:24.853Z,2.80
2019-02-02T04:51:55.611Z,2.80
2019-02-02T04:54:26.323Z,2.90
2019-02-02T04:56:57.105Z,3.07
2019-02-02T04:59:29.317Z,3.00
2019-02-02T05:01:59.819Z,2.60
2019-02-02T05:04:30.498Z,2.87
2019-02-02T05:07:01.114Z,2.57
2019-02-02T05:09:32.063Z,2.70
2019-02-02T05:12:02.719Z,3.10
2019-02-02T05:14:33.207Z,2.40
2019-02-02T05:17:03.827Z,1.90
2019-02-02T05:19:34.663Z,1.83
2019-02-02T05:22:05.267Z,2.30
2019-02-02T05:24:36.173Z,1.50
2019-02-02T05:27:06.689Z,1.30
2019-02-02T05:29:41.631Z,1.40
2019-02-02T05:32:09.861Z,1.37
2019-02-02T05:34:40.779Z,1.20
2019-02-02T05:37:11.724Z,1.47
2019-02-02T05:39:42.304Z,1.83
2019-02-02T05:42:13.244Z,1.70
2019-02-02T05:44:43.861Z,1.47
2019-02-02T05:47:14.638Z,1.10
2019-02-02T05:49:45.392Z,1.50
2019-02-02T05:52:16.032Z,1.30
2019-02-02T05:54:46.998Z,1.43
2019-02-02T05:57:17.607Z,1.47
2019-02-02T05:59:52.923Z,1.47
2019-02-02T06:02:20.426Z,1.93
2019-02-02T06:04:51.119Z,2.00
2019-02-02T06:07:22.058Z,1.97
2019-02-02T06:09:52.666Z,2.30
2019-02-02T06:12:23.480Z,2.40
2019-02-02T06:14:54.496Z,3.27
2019-02-02T06:17:25.511Z,3.70
2019-02-02T06:19:56.397Z,3.97
2019-02-02T06:22:27.253Z,3.37
2019-02-02T06:24:57.813Z,3.60
2019-02-02T06:27:28.682Z,3.37
2019-02-02T06:30:04.458Z,2.50
2019-02-02T06:32:32.224Z,2.70
2019-02-02T06:35:03.449Z,2.70
2019-02-02T06:37:34.558Z,2.77
2019-02-02T06:40:05.777Z,2.20
2019-02-02T06:42:36.637Z,2.40
2019-02-02T06:45:09.200Z,2.57
2019-02-02T06:47:40.127Z,2.63
2019-02-02T06:50:12.863Z,2.60
2019-02-02T06:52:43.906Z,2.30
2019-02-02T06:55:16.120Z,2.70
2019-02-02T06:57:46.874Z,3.20
2019-02-02T07:00:20.503Z,2.27
2019-02-02T07:02:51.923Z,2.33
2019-02-02T07:05:22.900Z,2.50
2019-02-02T07:07:53.876Z,3.30
2019-02-02T07:10:26.099Z,3.37
2019-02-02T07:12:56.858Z,3.90
2019-02-02T07:15:29.132Z,3.07
2019-02-02T07:17:59.636Z,3.30
2019-02-02T07:20:30.364Z,3.40
2019-02-02T07:23:01.987Z,3.90
2019-02-02T07:25:32.681Z,3.77
2019-02-02T07:28:03.418Z,3.60
2019-02-02T07:30:34.342Z,3.60
2019-02-02T07:33:05.038Z,3.30
2019-02-02T07:35:36.062Z,2.90
2019-02-02T07:38:06.840Z,3.73
2019-02-02T07:40:38.078Z,4.03
2019-02-02T07:43:08.853Z,4.27
2019-02-02T07:45:40.021Z,4.27
2019-02-02T07:48:10.710Z,3.23
2019-02-02T07:50:41.585Z,2.90
2019-02-02T07:53:12.287Z,3.80
2019-02-02T07:55:44.088Z,3.57
2019-02-02T07:58:14.777Z,3.20
2019-02-02T08:00:45.843Z,3.43
2019-02-02T08:03:16.679Z,3.00
2019-02-02T08:05:47.643Z,3.13
2019-02-02T08:08:18.593Z,2.40
2019-02-02T08:10:49.424Z,3.00
2019-02-02T08:13:20.411Z,2.40
2019-02-02T08:15:51.509Z,2.50
2019-02-02T08:18:23.186Z,3.00
2019-02-02T08:20:54.048Z,3.17
2019-02-02T08:23:25.050Z,2.90
2019-02-02T08:25:55.896Z,3.63
2019-02-02T08:28:26.846Z,3.60
2019-02-02T08:30:58.166Z,3.90
2019-02-02T08:33:29.210Z,3.70
2019-02-02T08:36:00.252Z,4.33
2019-02-02T08:38:32.095Z,3.60
2019-02-02T08:41:02.818Z,3.33
2019-02-02T08:43:34.586Z,3.70
2019-02-02T08:46:05.692Z,3.87
2019-02-02T08:48:36.584Z,3.77
2019-02-02T08:51:08.246Z,3.60
2019-02-02T08:53:39.392Z,3.57
2019-02-02T08:56:09.920Z,3.77
2019-02-02T08:58:40.862Z,4.03
2019-02-02T09:01:11.445Z,4.50
2019-02-02T09:03:42.412Z,4.87
2019-02-02T09:06:13.197Z,5.37
2019-02-02T09:08:44.236Z,4.87
2019-02-02T09:11:14.955Z,5.17
2019-02-02T09:13:45.752Z,4.73
2019-02-02T09:16:16.723Z,5.87
2019-02-02T09:18:50.884Z,4.80
2019-02-02T09:21:20.523Z,4.57
2019-02-02T09:23:51.659Z,4.77
2019-02-02T09:26:22.458Z,4.20
2019-02-02T09:28:53.205Z,4.83
2019-02-02T09:31:24.201Z,4.97
2019-02-02T09:33:55.089Z,4.90
2019-02-02T09:36:26.231Z,4.37
2019-02-02T09:38:57.022Z,4.77
2019-02-02T09:41:27.916Z,4.77
2019-02-02T09:43:58.495Z,5.00
2019-02-02T09:46:29.184Z,12.50
2019-02-02T09:48:59.887Z,5.20
2019-02-02T09:51:30.980Z,5.13
2019-02-02T09:54:01.903Z,5.27
2019-02-02T09:56:33.264Z,6.00
2019-02-02T09:59:03.958Z,5.77
2019-02-02T10:01:34.470Z,5.67
2019-02-02T10:04:05.718Z,5.87
2019-02-02T10:06:36.583Z,5.60
2019-02-02T10:09:09.980Z,5.90
2019-02-02T10:11:40.961Z,5.20
2019-02-02T10:14:11.915Z,5.83
2019-02-02T10:16:42.626Z,5.70
2019-02-02T10:19:14.621Z,5.27
2019-02-02T10:21:46.124Z,5.43
2019-02-02T10:24:17.062Z,6.07
2019-02-02T10:26:47.831Z,6.30
2019-02-02T10:29:18.562Z,5.37
2019-02-02T10:31:49.537Z,5.43
2019-02-02T10:34:20.470Z,5.00
2019-02-02T10:36:51.040Z,4.83
2019-02-02T10:39:21.891Z,5.23
2019-02-02T10:41:52.905Z,5.23
2019-02-02T10:44:23.635Z,5.53
2019-02-02T10:46:54.453Z,5.30
2019-02-02T10:49:25.607Z,5.90
2019-02-02T10:51:58.040Z,4.87
2019-02-02T10:54:28.890Z,4.90
2019-02-02T10:56:59.821Z,5.63
2019-02-02T10:59:31.058Z,6.57
2019-02-02T11:02:02.179Z,6.43
2019-02-02T11:04:33.717Z,6.00
2019-02-02T11:07:04.794Z,6.43
2019-02-02T11:09:36.099Z,6.30
2019-02-02T11:12:06.949Z,7.47
2019-02-02T11:14:37.892Z,10.50
2019-02-02T11:17:09.399Z,5.70
2019-02-02T11:19:40.280Z,4.63
2019-02-02T11:22:11.154Z,5.47
2019-02-02T11:24:41.982Z,4.40
2019-02-02T11:27:13.056Z,4.17
2019-02-02T11:29:43.909Z,4.37
2019-02-02T11:32:15.025Z,4.37
2019-02-02T11:34:45.963Z,4.10
2019-02-02T11:37:17.988Z,3.70
2019-02-02T11:39:48.775Z,4.40
2019-02-02T11:42:19.460Z,3.90
2019-02-02T11:44:50.779Z,4.40
2019-02-02T11:47:21.567Z,4.37
2019-02-02T11:49:52.692Z,4.90
2019-02-02T11:52:23.546Z,4.43
2019-02-02T11:54:54.125Z,5.40
2019-02-02T11:57:25.139Z,5.03
2019-02-02T11:59:55.729Z,4.97
2019-02-02T12:02:26.734Z,5.07
2019-02-02T12:04:57.371Z,5.10
2019-02-02T12:07:28.237Z,5.20
2019-02-02T12:09:58.981Z,5.03
2019-02-02T12:12:29.649Z,5.40
2019-02-02T12:15:00.656Z,5.37
2019-02-02T12:17:31.588Z,6.20
2019-02-02T12:20:03.325Z,6.27
2019-02-02T12:22:34.534Z,5.87
2019-02-02T12:25:06.354Z,5.70
2019-02-02T12:27:39.055Z,5.13
2019-02-02T12:30:15.702Z,5.80
2019-02-02T12:32:46.678Z,6.13
2019-02-02T12:35:19.656Z,6.10
2019-02-02T12:37:50.573Z,5.50
2019-02-02T12:40:24.609Z,5.23
2019-02-02T12:42:55.696Z,5.70
2019-02-02T12:45:36.484Z,6.03
2019-02-02T12:48:07.453Z,5.33
2019-02-02T12:50:38.267Z,5.30
2019-02-02T12:53:09.079Z,5.03
2019-02-02T12:55:39.834Z,5.53
2019-02-02T12:58:10.984Z,5.00
2019-02-02T13:00:44.320Z,5.37
2019-02-02T13:03:15.332Z,5.97
2019-02-02T13:05:46.629Z,5.77
2019-02-02T13:08:17.303Z,5.97
2019-02-02T13:10:48.014Z,5.70
2019-02-02T13:13:19.054Z,5.83
2019-02-02T13:15:49.940Z,6.40
2019-02-02T13:18:20.527Z,6.00
2019-02-02T13:20:51.530Z,5.90
2019-02-02T13:23:22.390Z,5.30
2019-02-02T13:26:04.623Z,6.00
2019-02-02T13:28:26.464Z,5.47
2019-02-02T13:30:58.074Z,5.90
2019-02-02T13:33:29.133Z,5.40
2019-02-02T13:35:59.705Z,5.40
2019-02-02T13:38:31.948Z,5.50
2019-02-02T13:41:02.749Z,6.23
2019-02-02T13:43:33.258Z,5.60
2019-02-02T13:46:04.287Z,6.50
2019-02-02T13:48:34.884Z,6.17
2019-02-02T13:51:06.244Z,6.87
2019-02-02T13:53:37.151Z,6.50
2019-02-02T13:56:07.987Z,5.77
2019-02-02T13:58:38.884Z,5.93
2019-02-02T14:01:09.762Z,5.70
2019-02-02T14:03:40.750Z,5.97
2019-02-02T14:06:11.724Z,8.20
2019-02-02T14:08:42.650Z,6.83
2019-02-02T14:11:13.458Z,7.03
2019-02-02T14:13:44.489Z,6.63
2019-02-02T14:16:15.423Z,6.53
2019-02-02T14:18:47.621Z,5.97
2019-02-02T14:21:18.496Z,5.27
2019-02-02T14:23:49.392Z,6.40
2019-02-02T14:26:20.312Z,6.80
2019-02-02T14:28:51.030Z,6.80
2019-02-02T14:31:21.839Z,8.93
2019-02-02T14:33:52.821Z,7.37
2019-02-02T14:36:23.666Z,7.63
2019-02-02T14:38:54.529Z,7.37
2019-02-02T14:41:25.517Z,7.60
2019-02-02T14:43:56.336Z,6.80
2019-02-02T14:46:26.856Z,6.50
2019-02-02T14:48:57.818Z,8.37
2019-02-02T14:51:28.773Z,9.43
2019-02-02T14:53:59.446Z,10.50
2019-02-02T14:56:30.297Z,9.60
2019-02-02T14:59:03.569Z,10.07
2019-02-02T15:01:33.962Z,10.43
2019-02-02T15:04:05.015Z,8.67
2019-02-02T15:06:36.137Z,9.03
2019-02-02T15:09:08.312Z,7.93
2019-02-02T15:11:40.536Z,8.77
2019-02-02T15:14:12.095Z,8.90
2019-02-02T15:16:42.871Z,7.80
2019-02-02T15:19:13.699Z,8.63
2019-02-02T15:21:44.612Z,7.57
2019-02-02T15:24:15.103Z,8.13
2019-02-02T15:26:46.097Z,7.23
2019-02-02T15:29:16.666Z,7.40
2019-02-02T15:31:47.917Z,7.23
2019-02-02T15:34:18.928Z,6.20
2019-02-02T15:36:50.363Z,6.53
2019-02-02T15:39:21.042Z,6.33
2019-02-02T15:41:53.194Z,6.23
2019-02-02T15:44:24.320Z,7.30
2019-02-02T15:46:55.263Z,6.90
2019-02-02T15:49:27.566Z,8.60
2019-02-02T15:51:58.094Z,9.67
2019-02-02T15:54:28.776Z,7.07
2019-02-02T15:56:59.827Z,6.83
2019-02-02T15:59:31.628Z,7.80
2019-02-02T16:02:02.935Z,7.30
2019-02-02T16:04:33.948Z,7.63
2019-02-02T16:07:04.813Z,6.37
2019-02-02T16:09:35.622Z,6.97
2019-02-02T16:12:07.345Z,6.43
2019-02-02T16:14:38.258Z,7.50
2019-02-02T16:17:09.106Z,7.10
2019-02-02T16:19:40.933Z,6.70
2019-02-02T16:22:11.583Z,7.00
2019-02-02T16:24:42.269Z,6.63
2019-02-02T16:27:12.918Z,7.53
2019-02-02T16:29:43.719Z,7.23
2019-02-02T16:32:14.925Z,6.73
2019-02-02T16:34:45.827Z,6.73
2019-02-02T16:37:16.594Z,7.23
2019-02-02T16:39:50.201Z,6.50
2019-02-02T16:42:21.213Z,6.67
2019-02-02T16:44:52.755Z,7.53
2019-02-02T16:47:24.018Z,6.83
2019-02-02T16:49:54.836Z,8.37
2019-02-02T16:52:25.685Z,9.67
2019-02-02T16:54:56.352Z,9.40
2019-02-02T16:57:27.621Z,9.13
2019-02-02T16:59:58.760Z,9.27
2019-02-02T17:02:29.911Z,9.30
2019-02-02T17:05:00.765Z,9.87
2019-02-02T17:07:32.108Z,8.60
2019-02-02T17:10:03.254Z,8.30
2019-02-02T17:12:34.951Z,10.87
2019-02-02T17:15:06.882Z,14.53
2019-02-02T17:17:38.069Z,14.40
2019-02-02T17:20:12.227Z,8.30
2019-02-02T17:22:42.989Z,8.00
2019-02-02T17:25:16.121Z,5.73
2019-02-02T17:27:47.049Z,6.47
2019-02-02T17:30:19.802Z,5.80
2019-02-02T17:32:51.731Z,6.40
2019-02-02T17:35:22.570Z,4.80
2019-02-02T17:37:53.460Z,5.23
2019-02-02T17:40:26.304Z,5.30
2019-02-02T17:42:57.363Z,5.17
2019-02-02T17:45:28.493Z,6.50
2019-02-02T17:47:59.330Z,6.70
2019-02-02T17:50:30.118Z,6.90
2019-02-02T17:53:01.774Z,6.67
2019-02-02T17:55:32.508Z,7.00
2019-02-02T17:58:03.306Z,5.80
2019-02-02T18:00:42.124Z,6.50
2019-02-02T18:03:13.340Z,6.13
2019-02-02T18:05:44.026Z,7.60
2019-02-02T18:08:15.797Z,6.33
2019-02-02T18:10:46.746Z,6.77
2019-02-02T18:13:17.923Z,7.40
2019-02-02T18:15:48.562Z,8.13
2019-02-02T18:18:19.479Z,8.60
2019-02-02T18:20:51.335Z,12.67
2019-02-02T18:23:22.705Z,12.10
2019-02-02T18:25:53.579Z,7.63
2019-02-02T18:28:24.499Z,6.23
2019-02-02T18:30:55.310Z,8.57
2019-02-02T18:33:28.935Z,6.20
2019-02-02T18:36:01.006Z,5.90
2019-02-02T18:38:32.736Z,5.17
2019-02-02T18:41:03.544Z,4.70
2019-02-02T18:43:35.393Z,5.33
2019-02-02T18:46:06.600Z,4.90
2019-02-02T18:48:37.742Z,5.63
2019-02-02T18:51:09.487Z,5.60
2019-02-02T18:53:41.638Z,5.03
2019-02-02T18:56:14.726Z,4.97
2019-02-02T18:58:45.549Z,5.83
2019-02-02T19:01:16.568Z,6.30
2019-02-02T19:03:47.418Z,6.43
2019-02-02T19:06:18.139Z,5.30
2019-02-02T19:08:49.222Z,6.17
2019-02-02T19:11:20.526Z,5.90
2019-02-02T19:13:51.681Z,4.77
2019-02-02T19:16:23.536Z,6.60
2019-02-02T19:18:54.642Z,6.17
2019-02-02T19:21:25.945Z,6.13
2019-02-02T19:23:56.882Z,5.00
2019-02-02T19:26:28.246Z,6.63
2019-02-02T19:28:59.708Z,7.23
2019-02-02T19:31:32.312Z,7.40
2019-02-02T19:34:04.819Z,6.47
2019-02-02T19:36:35.726Z,8.07
2019-02-02T19:39:08.966Z,8.17
2019-02-02T19:41:40.236Z,9.10
2019-02-02T19:44:11.440Z,9.70
2019-02-02T19:46:42.550Z,11.07
2019-02-02T19:49:13.293Z,9.40
2019-02-02T19:51:44.678Z,7.37
2019-02-02T19:54:15.527Z,6.77
2019-02-02T19:56:46.403Z,6.50
2019-02-02T19:59:17.395Z,6.53
2019-02-02T20:01:48.358Z,7.03
2019-02-02T20:04:19.557Z,7.50
2019-02-02T20:06:50.473Z,8.07
2019-02-02T20:09:21.015Z,7.50
2019-02-02T20:11:51.859Z,8.07
2019-02-02T20:14:22.820Z,11.13
2019-02-02T20:16:55.295Z,8.00
2019-02-02T20:19:26.448Z,9.27
2019-02-02T20:21:59.073Z,8.57
2019-02-02T20:24:30.076Z,9.30
2019-02-02T20:27:01.157Z,9.60
2019-02-02T20:29:32.259Z,8.30
2019-02-02T20:32:03.087Z,7.90
2019-02-02T20:34:34.278Z,7.90
2019-02-02T20:37:05.026Z,8.50
2019-02-02T20:39:35.969Z,8.73
2019-02-02T20:42:08.243Z,7.43
2019-02-02T20:44:39.259Z,9.47
2019-02-02T20:47:10.500Z,8.60
2019-02-02T20:49:41.862Z,9.10
2019-02-02T20:52:13.227Z,8.80
2019-02-02T20:54:44.320Z,9.07
2019-02-02T20:57:15.343Z,8.87
2019-02-02T20:59:46.861Z,8.53
2019-02-02T21:02:17.876Z,9.17
2019-02-02T21:04:48.951Z,8.90
2019-02-02T21:07:19.982Z,9.40
2019-02-02T21:09:51.040Z,7.67
2019-02-02T21:12:21.776Z,9.70
2019-02-02T21:14:53.629Z,8.00
2019-02-02T21:17:24.507Z,8.77
2019-02-02T21:19:55.811Z,8.03
2019-02-02T21:22:27.075Z,10.63
2019-02-02T21:24:58.094Z,15.40
2019-02-02T21:27:30.775Z,11.90
2019-02-02T21:30:01.694Z,9.53
2019-02-02T21:32:32.954Z,10.47
2019-02-02T21:35:03.629Z,10.53
2019-02-02T21:37:34.594Z,8.53
2019-02-02T21:40:09.841Z,9.30
2019-02-02T21:42:41.060Z,9.43
2019-02-02T21:45:16.182Z,11.10
2019-02-02T21:47:50.989Z,13.87
2019-02-02T21:50:23.147Z,9.70
2019-02-02T21:52:54.542Z,9.23
2019-02-02T21:55:27.181Z,9.27
2019-02-02T21:57:58.157Z,8.80
2019-02-02T22:00:31.512Z,9.00
2019-02-02T22:03:02.805Z,9.07
2019-02-02T22:05:33.634Z,9.80
2019-02-02T22:08:04.898Z,8.63
2019-02-02T22:10:35.725Z,10.00
2019-02-02T22:13:08.002Z,8.53
2019-02-02T22:15:39.082Z,9.37
2019-02-02T22:18:10.319Z,9.70
2019-02-02T22:20:41.848Z,8.67
2019-02-02T22:23:12.806Z,8.77
2019-02-02T22:25:43.677Z,8.63
2019-02-02T22:28:14.388Z,7.87
2019-02-02T22:30:45.256Z,8.40
2019-02-02T22:33:15.823Z,8.10
2019-02-02T22:35:46.490Z,7.87
2019-02-02T22:38:18.552Z,7.90
2019-02-02T22:40:49.266Z,7.30
2019-02-02T22:43:20.257Z,9.67
2019-02-02T22:45:50.991Z,8.50
2019-02-02T22:48:21.629Z,7.60
2019-02-02T22:50:52.307Z,8.30
2019-02-02T22:53:23.096Z,11.87
2019-02-02T22:55:54.219Z,14.20
2019-02-02T22:58:25.394Z,14.97
2019-02-02T23:01:17.146Z,18.37
2019-02-02T23:04:16.484Z,18.50
2019-02-02T23:07:00.276Z,16.23
2019-02-02T23:10:07.038Z,13.83
2019-02-02T23:12:58.098Z,16.27
2019-02-02T23:16:21.082Z,15.37
2019-02-02T23:18:52.354Z,14.83
2019-02-02T23:21:23.534Z,20.23
2019-02-02T23:23:54.566Z,19.77
2019-02-02T23:26:25.307Z,18.67
2019-02-02T23:28:55.975Z,18.83
2019-02-02T23:31:27.275Z,18.13
2019-02-02T23:33:58.298Z,15.90
2019-02-02T23:36:29.478Z,17.37
2019-02-02T23:39:00.349Z,21.47
2019-02-02T23:41:32.770Z,21.87
2019-02-02T23:44:03.483Z,24.70
2019-02-02T23:46:35.187Z,21.40
2019-02-02T23:49:06.598Z,20.60
2019-02-02T23:51:38.032Z,22.57
2019-02-02T23:54:08.616Z,34.03
2019-02-02T23:56:39.231Z,27.53
2019-02-02T23:59:12.584Z,27.63
